sensor_id;sensor_type;location;lat;lon;timestamp;P1;durP1;ratioP1;P2;durP2;ratioP2
44426;SDS011;30133;47.866;-4.222;2024-03-08T00:01:24;3.95;;;2.28;;
44426;SDS011;30133;47.866;-4.222;2024-03-08T00:04:30;4.53;;;2.20;;
44426;SDS011;30133;47.866;-4.222;2024-03-08T00:07:16;4.63;;;2.30;;
44426;SDS011;30133;47.866;-4.222;2024-03-08T00:10:03;3.60;;;2.00;;
44426;SDS011;30133;47.866;-4.222;2024-03-08T00:12:49;3.35;;;1.95;;
44426;SDS011;30133;47.866;-4.222;2024-03-08T00:22:05;3.33;;;2.17;;
44426;SDS011;30133;47.866;-4.222;2024-03-08T00:24:51;4.10;;;1.77;;
44426;SDS011;30133;47.866;-4.222;2024-03-08T00:27:37;5.60;;;2.38;;
44426;SDS011;30133;47.866;-4.222;2024-03-08T00:30:23;4.85;;;2.25;;
44426;SDS011;30133;47.866;-4.222;2024-03-08T00:36:15;3.80;;;2.30;;
44426;SDS011;30133;47.866;-4.222;2024-03-08T00:42:06;4.47;;;2.55;;
44426;SDS011;30133;47.866;-4.222;2024-03-08T00:44:52;4.07;;;2.55;;
44426;SDS011;30133;47.866;-4.222;2024-03-08T00:47:38;4.28;;;2.50;;
44426;SDS011;30133;47.866;-4.222;2024-03-08T00:50:24;5.38;;;2.15;;
44426;SDS011;30133;47.866;-4.222;2024-03-08T00:56:15;3.03;;;2.13;;
44426;SDS011;30133;47.866;-4.222;2024-03-08T00:59:20;4.32;;;2.03;;
44426;SDS011;30133;47.866;-4.222;2024-03-08T01:02:24;3.42;;;2.25;;
44426;SDS011;30133;47.866;-4.222;2024-03-08T01:05:10;4.18;;;2.10;;
44426;SDS011;30133;47.866;-4.222;2024-03-08T01:07:56;2.92;;;2.00;;
44426;SDS011;30133;47.866;-4.222;2024-03-08T01:10:43;4.28;;;2.50;;
44426;SDS011;30133;47.866;-4.222;2024-03-08T01:16:35;4.28;;;2.42;;
44426;SDS011;30133;47.866;-4.222;2024-03-08T01:19:21;8.38;;;2.72;;
44426;SDS011;30133;47.866;-4.222;2024-03-08T01:22:07;4.32;;;2.17;;
44426;SDS011;30133;47.866;-4.222;2024-03-08T01:25:12;3.83;;;2.17;;
44426;SDS011;30133;47.866;-4.222;2024-03-08T01:28:17;4.85;;;2.58;;
44426;SDS011;30133;47.866;-4.222;2024-03-08T01:31:03;3.35;;;2.33;;
44426;SDS011;30133;47.866;-4.222;2024-03-08T01:33:49;5.25;;;2.50;;
44426;SDS011;30133;47.866;-4.222;2024-03-08T01:36:36;5.28;;;2.58;;
44426;SDS011;30133;47.866;-4.222;2024-03-08T01:39:22;3.60;;;2.22;;
44426;SDS011;30133;47.866;-4.222;2024-03-08T01:45:13;3.88;;;2.13;;
44426;SDS011;30133;47.866;-4.222;2024-03-08T01:47:59;4.13;;;2.45;;
44426;SDS011;30133;47.866;-4.222;2024-03-08T01:50:46;6.63;;;2.78;;
44426;SDS011;30133;47.866;-4.222;2024-03-08T01:53:32;4.75;;;2.60;;
44426;SDS011;30133;47.866;-4.222;2024-03-08T01:56:18;8.35;;;2.85;;
44426;SDS011;30133;47.866;-4.222;2024-03-08T01:59:05;2.67;;;2.30;;
44426;SDS011;30133;47.866;-4.222;2024-03-08T02:01:55;4.00;;;2.60;;
44426;SDS011;30133;47.866;-4.222;2024-03-08T02:04:45;4.22;;;2.45;;
44426;SDS011;30133;47.866;-4.222;2024-03-08T02:07:31;3.47;;;2.53;;
44426;SDS011;30133;47.866;-4.222;2024-03-08T02:10:17;4.05;;;2.38;;
44426;SDS011;30133;47.866;-4.222;2024-03-08T02:13:04;4.75;;;2.75;;
44426;SDS011;30133;47.866;-4.222;2024-03-08T02:16:08;4.93;;;2.65;;
44426;SDS011;30133;47.866;-4.222;2024-03-08T02:18:54;6.55;;;2.83;;
44426;SDS011;30133;47.866;-4.222;2024-03-08T02:21:41;6.10;;;2.55;;
44426;SDS011;30133;47.866;-4.222;2024-03-08T02:24:33;7.78;;;3.03;;
44426;SDS011;30133;47.866;-4.222;2024-03-08T02:27:25;4.68;;;2.50;;
44426;SDS011;30133;47.866;-4.222;2024-03-08T02:30:11;3.92;;;2.50;;
44426;SDS011;30133;47.866;-4.222;2024-03-08T02:32:58;4.72;;;2.60;;
44426;SDS011;30133;47.866;-4.222;2024-03-08T02:38:49;4.32;;;2.55;;
44426;SDS011;30133;47.866;-4.222;2024-03-08T02:47:45;4.28;;;2.83;;
44426;SDS011;30133;47.866;-4.222;2024-03-08T02:50:31;6.60;;;2.88;;
44426;SDS011;30133;47.866;-4.222;2024-03-08T02:53:17;5.88;;;2.70;;
44426;SDS011;30133;47.866;-4.222;2024-03-08T02:56:04;4.10;;;2.83;;
44426;SDS011;30133;47.866;-4.222;2024-03-08T02:58:54;4.38;;;2.75;;
44426;SDS011;30133;47.866;-4.222;2024-03-08T03:01:40;5.35;;;2.88;;
44426;SDS011;30133;47.866;-4.222;2024-03-08T03:04:26;4.55;;;2.88;;
44426;SDS011;30133;47.866;-4.222;2024-03-08T03:07:13;4.90;;;3.25;;
44426;SDS011;30133;47.866;-4.222;2024-03-08T03:09:59;5.95;;;2.90;;
44426;SDS011;30133;47.866;-4.222;2024-03-08T03:16:09;5.63;;;2.85;;
44426;SDS011;30133;47.866;-4.222;2024-03-08T03:22:03;6.10;;;2.95;;
44426;SDS011;30133;47.866;-4.222;2024-03-08T03:24:51;4.80;;;3.13;;
44426;SDS011;30133;47.866;-4.222;2024-03-08T03:27:37;3.60;;;2.42;;
44426;SDS011;30133;47.866;-4.222;2024-03-08T03:30:24;7.40;;;3.28;;
44426;SDS011;30133;47.866;-4.222;2024-03-08T03:33:29;4.53;;;2.50;;
44426;SDS011;30133;47.866;-4.222;2024-03-08T03:36:15;6.93;;;3.10;;
44426;SDS011;30133;47.866;-4.222;2024-03-08T03:39:01;5.60;;;2.65;;
44426;SDS011;30133;47.866;-4.222;2024-03-08T03:41:58;7.38;;;3.20;;
44426;SDS011;30133;47.866;-4.222;2024-03-08T03:44:45;5.32;;;3.17;;
44426;SDS011;30133;47.866;-4.222;2024-03-08T03:47:32;6.88;;;2.97;;
44426;SDS011;30133;47.866;-4.222;2024-03-08T03:50:19;5.15;;;2.97;;
44426;SDS011;30133;47.866;-4.222;2024-03-08T03:53:05;3.88;;;3.15;;
44426;SDS011;30133;47.866;-4.222;2024-03-08T03:55:54;4.05;;;2.88;;
44426;SDS011;30133;47.866;-4.222;2024-03-08T03:58:40;4.10;;;2.67;;
44426;SDS011;30133;47.866;-4.222;2024-03-08T04:01:27;4.82;;;3.05;;
44426;SDS011;30133;47.866;-4.222;2024-03-08T04:07:19;4.47;;;2.78;;
44426;SDS011;30133;47.866;-4.222;2024-03-08T04:10:06;4.22;;;2.70;;
44426;SDS011;30133;47.866;-4.222;2024-03-08T04:16:16;5.32;;;3.08;;
44426;SDS011;30133;47.866;-4.222;2024-03-08T04:22:25;7.13;;;3.47;;
44426;SDS011;30133;47.866;-4.222;2024-03-08T04:25:14;5.70;;;3.17;;
44426;SDS011;30133;47.866;-4.222;2024-03-08T04:28:00;6.80;;;3.03;;
44426;SDS011;30133;47.866;-4.222;2024-03-08T04:30:46;5.82;;;3.30;;
44426;SDS011;30133;47.866;-4.222;2024-03-08T04:33:32;4.38;;;2.85;;
44426;SDS011;30133;47.866;-4.222;2024-03-08T04:36:21;5.25;;;3.28;;
44426;SDS011;30133;47.866;-4.222;2024-03-08T04:39:07;3.97;;;3.13;;
44426;SDS011;30133;47.866;-4.222;2024-03-08T04:41:58;4.63;;;2.97;;
44426;SDS011;30133;47.866;-4.222;2024-03-08T04:45:04;8.30;;;3.58;;
44426;SDS011;30133;47.866;-4.222;2024-03-08T04:47:50;5.50;;;2.85;;
44426;SDS011;30133;47.866;-4.222;2024-03-08T04:50:37;6.07;;;3.20;;
44426;SDS011;30133;47.866;-4.222;2024-03-08T05:00:12;7.82;;;3.55;;
44426;SDS011;30133;47.866;-4.222;2024-03-08T05:03:00;4.93;;;3.10;;
44426;SDS011;30133;47.866;-4.222;2024-03-08T05:05:46;6.13;;;3.10;;
44426;SDS011;30133;47.866;-4.222;2024-03-08T05:08:33;5.05;;;3.08;;
44426;SDS011;30133;47.866;-4.222;2024-03-08T05:11:37;4.78;;;3.20;;
44426;SDS011;30133;47.866;-4.222;2024-03-08T05:14:23;8.23;;;3.28;;
44426;SDS011;30133;47.866;-4.222;2024-03-08T05:17:10;6.03;;;2.90;;
44426;SDS011;30133;47.866;-4.222;2024-03-08T05:19:56;8.32;;;3.65;;
44426;SDS011;30133;47.866;-4.222;2024-03-08T05:22:43;8.32;;;3.58;;
44426;SDS011;30133;47.866;-4.222;2024-03-08T05:25:48;4.97;;;3.20;;
44426;SDS011;30133;47.866;-4.222;2024-03-08T05:28:34;5.97;;;3.47;;
44426;SDS011;30133;47.866;-4.222;2024-03-08T05:31:46;7.60;;;3.40;;
44426;SDS011;30133;47.866;-4.222;2024-03-08T05:34:33;7.32;;;3.72;;
44426;SDS011;30133;47.866;-4.222;2024-03-08T05:37:19;8.10;;;3.70;;
44426;SDS011;30133;47.866;-4.222;2024-03-08T05:40:06;6.00;;;3.78;;
44426;SDS011;30133;47.866;-4.222;2024-03-08T05:43:30;6.45;;;3.50;;
44426;SDS011;30133;47.866;-4.222;2024-03-08T05:46:16;5.72;;;3.38;;
44426;SDS011;30133;47.866;-4.222;2024-03-08T05:55:33;5.03;;;2.97;;
44426;SDS011;30133;47.866;-4.222;2024-03-08T06:01:25;7.72;;;3.92;;
44426;SDS011;30133;47.866;-4.222;2024-03-08T06:04:31;6.03;;;3.63;;
44426;SDS011;30133;47.866;-4.222;2024-03-08T06:07:17;6.57;;;4.03;;
44426;SDS011;30133;47.866;-4.222;2024-03-08T06:10:03;8.88;;;3.85;;
44426;SDS011;30133;47.866;-4.222;2024-03-08T06:13:08;8.85;;;4.07;;
44426;SDS011;30133;47.866;-4.222;2024-03-08T06:18:59;5.85;;;3.45;;
44426;SDS011;30133;47.866;-4.222;2024-03-08T06:22:04;6.03;;;3.67;;
44426;SDS011;30133;47.866;-4.222;2024-03-08T06:24:51;7.72;;;3.95;;
44426;SDS011;30133;47.866;-4.222;2024-03-08T06:27:42;6.97;;;3.30;;
44426;SDS011;30133;47.866;-4.222;2024-03-08T06:30:29;7.53;;;3.83;;
44426;SDS011;30133;47.866;-4.222;2024-03-08T06:33:17;6.00;;;3.38;;
44426;SDS011;30133;47.866;-4.222;2024-03-08T06:36:03;11.23;;;3.92;;
44426;SDS011;30133;47.866;-4.222;2024-03-08T06:39:08;5.90;;;4.10;;
44426;SDS011;30133;47.866;-4.222;2024-03-08T06:42:13;8.55;;;3.70;;
44426;SDS011;30133;47.866;-4.222;2024-03-08T06:44:59;4.70;;;3.78;;
44426;SDS011;30133;47.866;-4.222;2024-03-08T06:47:49;6.28;;;3.95;;
44426;SDS011;30133;47.866;-4.222;2024-03-08T06:50:36;7.10;;;3.88;;
44426;SDS011;30133;47.866;-4.222;2024-03-08T06:56:45;6.65;;;3.97;;
44426;SDS011;30133;47.866;-4.222;2024-03-08T06:59:50;5.78;;;3.47;;
44426;SDS011;30133;47.866;-4.222;2024-03-08T07:02:37;7.38;;;3.95;;
44426;SDS011;30133;47.866;-4.222;2024-03-08T07:05:25;7.00;;;4.10;;
44426;SDS011;30133;47.866;-4.222;2024-03-08T07:08:29;4.78;;;3.22;;
44426;SDS011;30133;47.866;-4.222;2024-03-08T07:11:15;7.03;;;3.70;;
44426;SDS011;30133;47.866;-4.222;2024-03-08T07:14:03;8.23;;;4.13;;
44426;SDS011;30133;47.866;-4.222;2024-03-08T07:16:51;9.32;;;4.15;;
44426;SDS011;30133;47.866;-4.222;2024-03-08T07:19:38;6.00;;;3.53;;
44426;SDS011;30133;47.866;-4.222;2024-03-08T07:22:46;6.40;;;4.35;;
44426;SDS011;30133;47.866;-4.222;2024-03-08T07:26:10;6.72;;;3.97;;
44426;SDS011;30133;47.866;-4.222;2024-03-08T07:28:56;6.45;;;4.03;;
44426;SDS011;30133;47.866;-4.222;2024-03-08T07:31:44;15.05;;;4.28;;
44426;SDS011;30133;47.866;-4.222;2024-03-08T07:34:36;6.90;;;4.05;;
44426;SDS011;30133;47.866;-4.222;2024-03-08T07:37:41;6.65;;;4.22;;
44426;SDS011;30133;47.866;-4.222;2024-03-08T07:40:27;6.88;;;4.38;;
44426;SDS011;30133;47.866;-4.222;2024-03-08T07:43:13;11.05;;;3.83;;
44426;SDS011;30133;47.866;-4.222;2024-03-08T07:45:59;12.82;;;4.13;;
44426;SDS011;30133;47.866;-4.222;2024-03-08T07:48:45;10.80;;;4.40;;
44426;SDS011;30133;47.866;-4.222;2024-03-08T07:51:31;7.28;;;4.70;;
44426;SDS011;30133;47.866;-4.222;2024-03-08T07:57:41;6.20;;;3.65;;
44426;SDS011;30133;47.866;-4.222;2024-03-08T08:03:32;9.20;;;3.83;;
44426;SDS011;30133;47.866;-4.222;2024-03-08T08:09:24;6.28;;;4.00;;
44426;SDS011;30133;47.866;-4.222;2024-03-08T08:12:13;6.47;;;4.18;;
44426;SDS011;30133;47.866;-4.222;2024-03-08T08:15:00;7.72;;;4.35;;
44426;SDS011;30133;47.866;-4.222;2024-03-08T08:17:46;4.95;;;3.60;;
44426;SDS011;30133;47.866;-4.222;2024-03-08T08:20:37;7.50;;;4.55;;
44426;SDS011;30133;47.866;-4.222;2024-03-08T08:23:23;7.18;;;4.25;;
44426;SDS011;30133;47.866;-4.222;2024-03-08T08:32:18;6.88;;;3.75;;
44426;SDS011;30133;47.866;-4.222;2024-03-08T08:35:22;7.30;;;4.03;;
44426;SDS011;30133;47.866;-4.222;2024-03-08T08:38:09;18.80;;;4.55;;
44426;SDS011;30133;47.866;-4.222;2024-03-08T08:44:01;10.98;;;5.10;;
44426;SDS011;30133;47.866;-4.222;2024-03-08T08:46:47;12.90;;;5.00;;
44426;SDS011;30133;47.866;-4.222;2024-03-08T08:49:33;9.73;;;4.72;;
44426;SDS011;30133;47.866;-4.222;2024-03-08T08:52:20;6.72;;;4.15;;
44426;SDS011;30133;47.866;-4.222;2024-03-08T08:55:06;10.30;;;4.88;;
44426;SDS011;30133;47.866;-4.222;2024-03-08T08:58:11;9.10;;;5.03;;
44426;SDS011;30133;47.866;-4.222;2024-03-08T09:00:58;9.75;;;4.97;;
44426;SDS011;30133;47.866;-4.222;2024-03-08T09:04:04;19.83;;;5.00;;
44426;SDS011;30133;47.866;-4.222;2024-03-08T09:06:50;12.43;;;5.10;;
44426;SDS011;30133;47.866;-4.222;2024-03-08T09:09:36;14.60;;;4.68;;
44426;SDS011;30133;47.866;-4.222;2024-03-08T09:12:23;15.05;;;5.30;;
44426;SDS011;30133;47.866;-4.222;2024-03-08T09:15:09;13.52;;;4.47;;
44426;SDS011;30133;47.866;-4.222;2024-03-08T09:17:58;15.57;;;5.85;;
44426;SDS011;30133;47.866;-4.222;2024-03-08T09:21:04;16.90;;;5.05;;
44426;SDS011;30133;47.866;-4.222;2024-03-08T09:23:50;15.63;;;5.25;;
44426;SDS011;30133;47.866;-4.222;2024-03-08T09:26:44;18.75;;;5.30;;
44426;SDS011;30133;47.866;-4.222;2024-03-08T09:29:48;32.83;;;5.55;;
44426;SDS011;30133;47.866;-4.222;2024-03-08T09:32:53;26.35;;;5.15;;
44426;SDS011;30133;47.866;-4.222;2024-03-08T09:35:57;23.08;;;5.38;;
44426;SDS011;30133;47.866;-4.222;2024-03-08T09:39:01;39.90;;;6.63;;
44426;SDS011;30133;47.866;-4.222;2024-03-08T09:41:48;24.02;;;5.40;;
44426;SDS011;30133;47.866;-4.222;2024-03-08T09:47:58;28.60;;;5.80;;
44426;SDS011;30133;47.866;-4.222;2024-03-08T09:50:44;33.83;;;5.43;;
44426;SDS011;30133;47.866;-4.222;2024-03-08T09:53:31;42.92;;;5.05;;
44426;SDS011;30133;47.866;-4.222;2024-03-08T09:56:17;37.10;;;5.97;;
44426;SDS011;30133;47.866;-4.222;2024-03-08T09:59:03;38.42;;;6.03;;
44426;SDS011;30133;47.866;-4.222;2024-03-08T10:02:11;37.08;;;5.60;;
44426;SDS011;30133;47.866;-4.222;2024-03-08T10:05:01;20.50;;;6.20;;
44426;SDS011;30133;47.866;-4.222;2024-03-08T10:11:10;28.52;;;5.70;;
44426;SDS011;30133;47.866;-4.222;2024-03-08T10:14:15;40.33;;;5.28;;
44426;SDS011;30133;47.866;-4.222;2024-03-08T10:17:26;29.00;;;6.32;;
44426;SDS011;30133;47.866;-4.222;2024-03-08T10:20:18;22.10;;;5.07;;
44426;SDS011;30133;47.866;-4.222;2024-03-08T10:23:22;36.95;;;5.65;;
44426;SDS011;30133;47.866;-4.222;2024-03-08T10:29:13;18.20;;;4.78;;
44426;SDS011;30133;47.866;-4.222;2024-03-08T10:32:18;26.15;;;5.43;;
44426;SDS011;30133;47.866;-4.222;2024-03-08T10:35:25;20.20;;;5.20;;
44426;SDS011;30133;47.866;-4.222;2024-03-08T10:38:12;18.75;;;5.00;;
44426;SDS011;30133;47.866;-4.222;2024-03-08T10:41:04;24.75;;;5.15;;
44426;SDS011;30133;47.866;-4.222;2024-03-08T10:47:33;16.40;;;5.57;;
44426;SDS011;30133;47.866;-4.222;2024-03-08T10:50:26;23.48;;;5.25;;
44426;SDS011;30133;47.866;-4.222;2024-03-08T10:53:13;17.40;;;4.18;;
44426;SDS011;30133;47.866;-4.222;2024-03-08T10:56:00;21.40;;;5.00;;
44426;SDS011;30133;47.866;-4.222;2024-03-08T10:58:47;14.88;;;4.70;;
44426;SDS011;30133;47.866;-4.222;2024-03-08T11:01:34;19.33;;;6.10;;
44426;SDS011;30133;47.866;-4.222;2024-03-08T11:04:20;20.75;;;4.15;;
44426;SDS011;30133;47.866;-4.222;2024-03-08T11:07:08;19.88;;;4.85;;
44426;SDS011;30133;47.866;-4.222;2024-03-08T11:10:02;11.48;;;4.45;;
44426;SDS011;30133;47.866;-4.222;2024-03-08T11:13:32;20.05;;;5.22;;
44426;SDS011;30133;47.866;-4.222;2024-03-08T11:16:43;13.02;;;4.05;;
44426;SDS011;30133;47.866;-4.222;2024-03-08T11:19:30;9.90;;;4.25;;
44426;SDS011;30133;47.866;-4.222;2024-03-08T11:22:20;16.00;;;4.55;;
44426;SDS011;30133;47.866;-4.222;2024-03-08T11:25:34;11.23;;;4.75;;
44426;SDS011;30133;47.866;-4.222;2024-03-08T11:32:33;22.35;;;4.80;;
44426;SDS011;30133;47.866;-4.222;2024-03-08T11:35:21;14.98;;;4.45;;
44426;SDS011;30133;47.866;-4.222;2024-03-08T11:38:11;13.25;;;4.32;;
44426;SDS011;30133;47.866;-4.222;2024-03-08T11:40:58;11.48;;;4.72;;
44426;SDS011;30133;47.866;-4.222;2024-03-08T11:43:48;13.20;;;3.85;;
44426;SDS011;30133;47.866;-4.222;2024-03-08T11:46:54;11.50;;;4.30;;
44426;SDS011;30133;47.866;-4.222;2024-03-08T11:49:40;10.32;;;4.55;;
44426;SDS011;30133;47.866;-4.222;2024-03-08T11:52:29;18.42;;;5.13;;
44426;SDS011;30133;47.866;-4.222;2024-03-08T11:55:16;14.02;;;4.50;;
44426;SDS011;30133;47.866;-4.222;2024-03-08T11:58:21;13.45;;;4.30;;
44426;SDS011;30133;47.866;-4.222;2024-03-08T12:01:08;15.77;;;4.57;;
44426;SDS011;30133;47.866;-4.222;2024-03-08T12:04:13;11.32;;;4.63;;
44426;SDS011;30133;47.866;-4.222;2024-03-08T12:10:43;12.93;;;4.20;;
44426;SDS011;30133;47.866;-4.222;2024-03-08T12:13:47;12.75;;;4.45;;
44426;SDS011;30133;47.866;-4.222;2024-03-08T12:16:52;12.65;;;3.80;;
44426;SDS011;30133;47.866;-4.222;2024-03-08T12:22:56;12.40;;;4.18;;
44426;SDS011;30133;47.866;-4.222;2024-03-08T12:25:43;14.82;;;4.15;;
44426;SDS011;30133;47.866;-4.222;2024-03-08T12:28:29;12.90;;;3.97;;
44426;SDS011;30133;47.866;-4.222;2024-03-08T12:31:34;11.93;;;3.90;;
44426;SDS011;30133;47.866;-4.222;2024-03-08T12:34:27;8.05;;;4.47;;
44426;SDS011;30133;47.866;-4.222;2024-03-08T12:37:13;6.13;;;3.72;;
44426;SDS011;30133;47.866;-4.222;2024-03-08T12:43:43;15.07;;;4.60;;
44426;SDS011;30133;47.866;-4.222;2024-03-08T12:46:35;8.32;;;3.70;;
44426;SDS011;30133;47.866;-4.222;2024-03-08T12:49:39;9.90;;;3.95;;
44426;SDS011;30133;47.866;-4.222;2024-03-08T12:52:26;10.80;;;3.83;;
44426;SDS011;30133;47.866;-4.222;2024-03-08T12:55:12;5.80;;;3.45;;
44426;SDS011;30133;47.866;-4.222;2024-03-08T12:57:58;11.93;;;4.00;;
44426;SDS011;30133;47.866;-4.222;2024-03-08T13:00:46;13.50;;;4.50;;
44426;SDS011;30133;47.866;-4.222;2024-03-08T13:09:42;13.43;;;4.00;;
44426;SDS011;30133;47.866;-4.222;2024-03-08T13:15:33;12.15;;;4.00;;
44426;SDS011;30133;47.866;-4.222;2024-03-08T13:18:19;10.70;;;3.65;;
44426;SDS011;30133;47.866;-4.222;2024-03-08T13:24:28;10.77;;;3.08;;
44426;SDS011;30133;47.866;-4.222;2024-03-08T13:27:33;7.50;;;3.05;;
44426;SDS011;30133;47.866;-4.222;2024-03-08T13:30:41;10.25;;;3.45;;
44426;SDS011;30133;47.866;-4.222;2024-03-08T13:33:27;7.60;;;3.40;;
44426;SDS011;30133;47.866;-4.222;2024-03-08T13:36:32;12.68;;;3.45;;
44426;SDS011;30133;47.866;-4.222;2024-03-08T13:39:37;8.63;;;3.15;;
44426;SDS011;30133;47.866;-4.222;2024-03-08T13:42:42;19.90;;;4.03;;
44426;SDS011;30133;47.866;-4.222;2024-03-08T13:45:28;11.32;;;3.40;;
44426;SDS011;30133;47.866;-4.222;2024-03-08T13:48:33;9.80;;;3.35;;
44426;SDS011;30133;47.866;-4.222;2024-03-08T13:51:39;13.88;;;3.58;;
44426;SDS011;30133;47.866;-4.222;2024-03-08T13:57:30;9.32;;;3.50;;
44426;SDS011;30133;47.866;-4.222;2024-03-08T14:00:17;17.27;;;3.88;;
44426;SDS011;30133;47.866;-4.222;2024-03-08T14:03:03;8.95;;;3.42;;
44426;SDS011;30133;47.866;-4.222;2024-03-08T14:06:09;11.80;;;3.45;;
44426;SDS011;30133;47.866;-4.222;2024-03-08T14:09:15;15.07;;;4.30;;
44426;SDS011;30133;47.866;-4.222;2024-03-08T14:12:04;8.77;;;3.00;;
44426;SDS011;30133;47.866;-4.222;2024-03-08T14:17:58;14.73;;;3.65;;
44426;SDS011;30133;47.866;-4.222;2024-03-08T14:20:44;10.18;;;3.50;;
44426;SDS011;30133;47.866;-4.222;2024-03-08T14:23:32;12.50;;;3.47;;
44426;SDS011;30133;47.866;-4.222;2024-03-08T14:26:18;7.53;;;3.08;;
44426;SDS011;30133;47.866;-4.222;2024-03-08T14:29:22;10.00;;;2.95;;
44426;SDS011;30133;47.866;-4.222;2024-03-08T14:32:11;10.18;;;3.45;;
44426;SDS011;30133;47.866;-4.222;2024-03-08T14:34:58;15.60;;;3.72;;
44426;SDS011;30133;47.866;-4.222;2024-03-08T14:41:07;13.63;;;3.30;;
44426;SDS011;30133;47.866;-4.222;2024-03-08T14:43:53;12.07;;;3.30;;
44426;SDS011;30133;47.866;-4.222;2024-03-08T14:46:40;14.10;;;3.38;;
44426;SDS011;30133;47.866;-4.222;2024-03-08T14:56:15;12.77;;;2.92;;
44426;SDS011;30133;47.866;-4.222;2024-03-08T14:59:20;15.55;;;3.50;;
44426;SDS011;30133;47.866;-4.222;2024-03-08T15:02:25;20.83;;;3.00;;
44426;SDS011;30133;47.866;-4.222;2024-03-08T15:05:13;13.80;;;2.63;;
44426;SDS011;30133;47.866;-4.222;2024-03-08T15:08:21;14.27;;;2.75;;
44426;SDS011;30133;47.866;-4.222;2024-03-08T15:11:09;12.05;;;2.95;;
44426;SDS011;30133;47.866;-4.222;2024-03-08T15:13:55;12.23;;;3.33;;
44426;SDS011;30133;47.866;-4.222;2024-03-08T15:16:43;18.20;;;3.05;;
44426;SDS011;30133;47.866;-4.222;2024-03-08T15:19:29;14.02;;;3.15;;
44426;SDS011;30133;47.866;-4.222;2024-03-08T15:22:15;14.60;;;3.30;;
44426;SDS011;30133;47.866;-4.222;2024-03-08T15:25:03;11.75;;;2.92;;
44426;SDS011;30133;47.866;-4.222;2024-03-08T15:27:49;8.48;;;2.67;;
44426;SDS011;30133;47.866;-4.222;2024-03-08T15:33:58;18.05;;;2.88;;
44426;SDS011;30133;47.866;-4.222;2024-03-08T15:37:06;10.88;;;2.65;;
44426;SDS011;30133;47.866;-4.222;2024-03-08T15:40:11;10.98;;;2.55;;
44426;SDS011;30133;47.866;-4.222;2024-03-08T15:46:12;10.10;;;2.80;;
44426;SDS011;30133;47.866;-4.222;2024-03-08T15:49:16;10.02;;;3.08;;
44426;SDS011;30133;47.866;-4.222;2024-03-08T15:52:04;9.88;;;2.53;;
44426;SDS011;30133;47.866;-4.222;2024-03-08T15:54:51;13.05;;;3.03;;
44426;SDS011;30133;47.866;-4.222;2024-03-08T15:57:38;12.80;;;2.50;;
44426;SDS011;30133;47.866;-4.222;2024-03-08T16:00:25;9.05;;;2.70;;
44426;SDS011;30133;47.866;-4.222;2024-03-08T16:03:30;9.75;;;2.95;;
44426;SDS011;30133;47.866;-4.222;2024-03-08T16:06:34;11.60;;;2.85;;
44426;SDS011;30133;47.866;-4.222;2024-03-08T16:15:32;10.27;;;2.53;;
44426;SDS011;30133;47.866;-4.222;2024-03-08T16:18:37;6.97;;;2.42;;
44426;SDS011;30133;47.866;-4.222;2024-03-08T16:21:30;9.18;;;2.13;;
44426;SDS011;30133;47.866;-4.222;2024-03-08T16:27:10;11.68;;;2.30;;
44426;SDS011;30133;47.866;-4.222;2024-03-08T16:30:17;8.95;;;2.58;;
44426;SDS011;30133;47.866;-4.222;2024-03-08T16:33:22;7.85;;;2.67;;
44426;SDS011;30133;47.866;-4.222;2024-03-08T16:36:09;6.40;;;2.22;;
44426;SDS011;30133;47.866;-4.222;2024-03-08T16:38:58;8.25;;;2.58;;
44426;SDS011;30133;47.866;-4.222;2024-03-08T16:41:44;4.63;;;2.15;;
44426;SDS011;30133;47.866;-4.222;2024-03-08T16:44:52;4.82;;;2.10;;
44426;SDS011;30133;47.866;-4.222;2024-03-08T16:47:39;10.93;;;2.50;;
44426;SDS011;30133;47.866;-4.222;2024-03-08T16:50:26;5.68;;;2.22;;
44426;SDS011;30133;47.866;-4.222;2024-03-08T16:53:30;9.85;;;2.35;;
44426;SDS011;30133;47.866;-4.222;2024-03-08T16:56:19;17.08;;;2.70;;
44426;SDS011;30133;47.866;-4.222;2024-03-08T16:59:08;7.43;;;2.38;;
44426;SDS011;30133;47.866;-4.222;2024-03-08T17:02:13;8.57;;;2.33;;
44426;SDS011;30133;47.866;-4.222;2024-03-08T17:04:59;8.63;;;2.30;;
44426;SDS011;30133;47.866;-4.222;2024-03-08T17:08:03;8.73;;;2.30;;
44426;SDS011;30133;47.866;-4.222;2024-03-08T17:11:29;7.05;;;2.38;;
44426;SDS011;30133;47.866;-4.222;2024-03-08T17:14:15;4.43;;;2.10;;
44426;SDS011;30133;47.866;-4.222;2024-03-08T17:20:09;5.03;;;2.20;;
44426;SDS011;30133;47.866;-4.222;2024-03-08T17:23:00;15.60;;;2.40;;
44426;SDS011;30133;47.866;-4.222;2024-03-08T17:25:46;11.80;;;2.13;;
44426;SDS011;30133;47.866;-4.222;2024-03-08T17:28:53;12.65;;;2.58;;
44426;SDS011;30133;47.866;-4.222;2024-03-08T17:31:39;4.57;;;1.90;;
44426;SDS011;30133;47.866;-4.222;2024-03-08T17:34:25;4.20;;;1.90;;
44426;SDS011;30133;47.866;-4.222;2024-03-08T17:37:13;4.70;;;1.52;;
44426;SDS011;30133;47.866;-4.222;2024-03-08T17:40:00;9.60;;;2.20;;
44426;SDS011;30133;47.866;-4.222;2024-03-08T17:43:08;8.13;;;2.33;;
44426;SDS011;30133;47.866;-4.222;2024-03-08T17:45:56;6.55;;;1.98;;
44426;SDS011;30133;47.866;-4.222;2024-03-08T17:49:01;6.50;;;1.83;;
44426;SDS011;30133;47.866;-4.222;2024-03-08T17:52:07;9.30;;;2.20;;
44426;SDS011;30133;47.866;-4.222;2024-03-08T18:04:28;7.68;;;2.55;;
44426;SDS011;30133;47.866;-4.222;2024-03-08T18:07:15;5.65;;;2.42;;
44426;SDS011;30133;47.866;-4.222;2024-03-08T18:10:01;4.70;;;1.85;;
44426;SDS011;30133;47.866;-4.222;2024-03-08T18:12:47;9.27;;;2.45;;
44426;SDS011;30133;47.866;-4.222;2024-03-08T18:15:57;5.72;;;2.13;;
44426;SDS011;30133;47.866;-4.222;2024-03-08T18:19:03;9.43;;;2.85;;
44426;SDS011;30133;47.866;-4.222;2024-03-08T18:22:07;3.67;;;2.20;;
44426;SDS011;30133;47.866;-4.222;2024-03-08T18:24:54;4.07;;;1.90;;
44426;SDS011;30133;47.866;-4.222;2024-03-08T18:27:59;7.30;;;2.10;;
44426;SDS011;30133;47.866;-4.222;2024-03-08T18:30:47;8.65;;;2.40;;
44426;SDS011;30133;47.866;-4.222;2024-03-08T18:33:38;4.70;;;2.00;;
44426;SDS011;30133;47.866;-4.222;2024-03-08T18:36:30;4.95;;;2.58;;
44426;SDS011;30133;47.866;-4.222;2024-03-08T18:39:35;6.57;;;2.22;;
44426;SDS011;30133;47.866;-4.222;2024-03-08T18:42:42;5.20;;;1.98;;
44426;SDS011;30133;47.866;-4.222;2024-03-08T18:45:32;6.28;;;3.03;;
44426;SDS011;30133;47.866;-4.222;2024-03-08T18:48:19;8.07;;;3.28;;
44426;SDS011;30133;47.866;-4.222;2024-03-08T18:51:06;6.82;;;2.40;;
44426;SDS011;30133;47.866;-4.222;2024-03-08T18:53:52;7.82;;;2.20;;
44426;SDS011;30133;47.866;-4.222;2024-03-08T18:56:38;4.97;;;2.38;;
44426;SDS011;30133;47.866;-4.222;2024-03-08T19:00:02;6.68;;;2.35;;
44426;SDS011;30133;47.866;-4.222;2024-03-08T19:02:59;4.50;;;2.20;;
44426;SDS011;30133;47.866;-4.222;2024-03-08T19:05:46;6.40;;;2.30;;
44426;SDS011;30133;47.866;-4.222;2024-03-08T19:11:40;8.10;;;2.33;;
44426;SDS011;30133;47.866;-4.222;2024-03-08T19:14:48;5.57;;;2.70;;
44426;SDS011;30133;47.866;-4.222;2024-03-08T19:17:36;6.90;;;2.45;;
44426;SDS011;30133;47.866;-4.222;2024-03-08T19:20:41;6.10;;;2.20;;
44426;SDS011;30133;47.866;-4.222;2024-03-08T19:23:28;4.00;;;2.00;;
44426;SDS011;30133;47.866;-4.222;2024-03-08T19:26:19;6.70;;;2.22;;
44426;SDS011;30133;47.866;-4.222;2024-03-08T19:29:07;5.53;;;2.08;;
44426;SDS011;30133;47.866;-4.222;2024-03-08T19:32:11;7.07;;;2.40;;
44426;SDS011;30133;47.866;-4.222;2024-03-08T19:34:58;6.55;;;2.30;;
44426;SDS011;30133;47.866;-4.222;2024-03-08T19:37:45;8.15;;;2.75;;
44426;SDS011;30133;47.866;-4.222;2024-03-08T19:43:39;6.55;;;2.35;;
44426;SDS011;30133;47.866;-4.222;2024-03-08T19:46:25;3.70;;;2.40;;
44426;SDS011;30133;47.866;-4.222;2024-03-08T19:49:12;10.93;;;2.92;;
44426;SDS011;30133;47.866;-4.222;2024-03-08T19:52:16;6.85;;;2.63;;
44426;SDS011;30133;47.866;-4.222;2024-03-08T19:55:05;4.80;;;2.33;;
44426;SDS011;30133;47.866;-4.222;2024-03-08T19:58:10;7.65;;;2.53;;